sensor_id;sensor_type;location;lat;lon;timestamp;P1;durP1;ratioP1;P2;durP2;ratioP2
59294;SDS011;45067;44.654;20.200;2023-08-08T00:00:49;5.72;;;1.55;;
59294;SDS011;45067;44.654;20.200;2023-08-08T00:03:15;4.32;;;1.50;;
59294;SDS011;45067;44.654;20.200;2023-08-08T00:08:45;2.17;;;1.35;;
59294;SDS011;45067;44.654;20.200;2023-08-08T00:11:12;2.88;;;1.35;;
59294;SDS011;45067;44.654;20.200;2023-08-08T00:13:38;2.00;;;1.40;;
59294;SDS011;45067;44.654;20.200;2023-08-08T00:16:04;5.38;;;1.55;;
59294;SDS011;45067;44.654;20.200;2023-08-08T00:18:30;4.30;;;1.77;;
59294;SDS011;45067;44.654;20.200;2023-08-08T00:24:00;3.30;;;1.77;;
59294;SDS011;45067;44.654;20.200;2023-08-08T00:26:26;5.68;;;2.13;;
59294;SDS011;45067;44.654;20.200;2023-08-08T00:28:52;5.05;;;2.38;;
59294;SDS011;45067;44.654;20.200;2023-08-08T00:31:18;7.82;;;2.60;;
59294;SDS011;45067;44.654;20.200;2023-08-08T00:33:45;5.43;;;2.95;;
59294;SDS011;45067;44.654;20.200;2023-08-08T00:39:14;4.03;;;2.00;;
59294;SDS011;45067;44.654;20.200;2023-08-08T00:41:40;5.90;;;2.60;;
59294;SDS011;45067;44.654;20.200;2023-08-08T00:44:06;3.40;;;2.50;;
59294;SDS011;45067;44.654;20.200;2023-08-08T00:46:32;4.78;;;2.58;;
59294;SDS011;45067;44.654;20.200;2023-08-08T00:48:58;8.23;;;3.35;;
59294;SDS011;45067;44.654;20.200;2023-08-08T00:51:24;7.93;;;3.25;;
59294;SDS011;45067;44.654;20.200;2023-08-08T00:53:50;7.18;;;2.80;;
59294;SDS011;45067;44.654;20.200;2023-08-08T00:56:17;10.45;;;3.20;;
59294;SDS011;45067;44.654;20.200;2023-08-08T00:58:44;6.50;;;3.22;;
59294;SDS011;45067;44.654;20.200;2023-08-08T01:01:11;5.20;;;3.53;;
59294;SDS011;45067;44.654;20.200;2023-08-08T01:03:37;9.02;;;4.30;;
59294;SDS011;45067;44.654;20.200;2023-08-08T01:09:09;10.93;;;4.30;;
59294;SDS011;45067;44.654;20.200;2023-08-08T01:11:36;9.45;;;4.20;;
59294;SDS011;45067;44.654;20.200;2023-08-08T01:14:03;6.82;;;4.15;;
59294;SDS011;45067;44.654;20.200;2023-08-08T01:16:31;6.05;;;4.07;;
59294;SDS011;45067;44.654;20.200;2023-08-08T01:18:57;10.35;;;4.60;;
59294;SDS011;45067;44.654;20.200;2023-08-08T01:24:46;8.10;;;4.53;;
59294;SDS011;45067;44.654;20.200;2023-08-08T01:27:12;11.95;;;4.50;;
59294;SDS011;45067;44.654;20.200;2023-08-08T01:29:38;6.25;;;3.70;;
59294;SDS011;45067;44.654;20.200;2023-08-08T01:32:05;10.48;;;4.43;;
59294;SDS011;45067;44.654;20.200;2023-08-08T01:34:33;7.55;;;4.32;;
59294;SDS011;45067;44.654;20.200;2023-08-08T01:37:11;6.72;;;4.35;;
59294;SDS011;45067;44.654;20.200;2023-08-08T01:39:39;7.07;;;4.47;;
59294;SDS011;45067;44.654;20.200;2023-08-08T01:42:06;11.65;;;4.70;;
59294;SDS011;45067;44.654;20.200;2023-08-08T01:44:32;7.22;;;4.72;;
59294;SDS011;45067;44.654;20.200;2023-08-08T01:47:00;10.73;;;4.53;;
59294;SDS011;45067;44.654;20.200;2023-08-08T01:49:26;6.70;;;4.00;;
59294;SDS011;45067;44.654;20.200;2023-08-08T01:51:52;6.97;;;4.82;;
59294;SDS011;45067;44.654;20.200;2023-08-08T01:54:19;9.02;;;4.10;;
59294;SDS011;45067;44.654;20.200;2023-08-08T01:56:45;7.82;;;3.60;;
59294;SDS011;45067;44.654;20.200;2023-08-08T01:59:11;4.95;;;3.38;;
59294;SDS011;45067;44.654;20.200;2023-08-08T02:01:37;6.53;;;3.30;;
59294;SDS011;45067;44.654;20.200;2023-08-08T02:04:03;4.57;;;3.70;;
59294;SDS011;45067;44.654;20.200;2023-08-08T02:09:33;9.27;;;4.18;;
59294;SDS011;45067;44.654;20.200;2023-08-08T02:11:59;7.85;;;3.17;;
59294;SDS011;45067;44.654;20.200;2023-08-08T02:14:25;5.95;;;3.78;;
59294;SDS011;45067;44.654;20.200;2023-08-08T02:16:51;18.73;;;3.13;;
59294;SDS011;45067;44.654;20.200;2023-08-08T02:19:17;4.95;;;3.35;;
59294;SDS011;45067;44.654;20.200;2023-08-08T02:21:44;6.97;;;3.70;;
59294;SDS011;45067;44.654;20.200;2023-08-08T02:24:10;7.45;;;2.88;;
59294;SDS011;45067;44.654;20.200;2023-08-08T02:26:36;6.28;;;2.65;;
59294;SDS011;45067;44.654;20.200;2023-08-08T02:29:02;4.70;;;3.30;;
59294;SDS011;45067;44.654;20.200;2023-08-08T02:31:28;5.75;;;2.38;;
59294;SDS011;45067;44.654;20.200;2023-08-08T02:33:54;6.10;;;3.20;;
59294;SDS011;45067;44.654;20.200;2023-08-08T02:39:24;7.65;;;3.30;;
59294;SDS011;45067;44.654;20.200;2023-08-08T02:41:50;3.95;;;2.58;;
59294;SDS011;45067;44.654;20.200;2023-08-08T02:44:16;3.63;;;2.30;;
59294;SDS011;45067;44.654;20.200;2023-08-08T02:46:44;4.57;;;2.55;;
59294;SDS011;45067;44.654;20.200;2023-08-08T02:49:10;5.35;;;2.40;;
59294;SDS011;45067;44.654;20.200;2023-08-08T02:54:40;4.82;;;2.40;;
59294;SDS011;45067;44.654;20.200;2023-08-08T02:57:06;4.20;;;2.70;;
59294;SDS011;45067;44.654;20.200;2023-08-08T02:59:35;8.18;;;3.03;;
59294;SDS011;45067;44.654;20.200;2023-08-08T03:02:01;7.50;;;2.53;;
59294;SDS011;45067;44.654;20.200;2023-08-08T03:04:28;8.75;;;2.55;;
59294;SDS011;45067;44.654;20.200;2023-08-08T03:06:54;4.40;;;2.40;;
59294;SDS011;45067;44.654;20.200;2023-08-08T03:09:21;9.35;;;2.50;;
59294;SDS011;45067;44.654;20.200;2023-08-08T03:11:47;5.65;;;2.55;;
59294;SDS011;45067;44.654;20.200;2023-08-08T03:14:13;7.35;;;2.60;;
59294;SDS011;45067;44.654;20.200;2023-08-08T03:16:39;5.38;;;2.47;;
59294;SDS011;45067;44.654;20.200;2023-08-08T03:19:05;7.20;;;2.42;;
59294;SDS011;45067;44.654;20.200;2023-08-08T03:24:35;3.75;;;2.38;;
59294;SDS011;45067;44.654;20.200;2023-08-08T03:27:01;6.68;;;2.42;;
59294;SDS011;45067;44.654;20.200;2023-08-08T03:29:27;5.68;;;2.15;;
59294;SDS011;45067;44.654;20.200;2023-08-08T03:31:53;4.90;;;2.35;;
59294;SDS011;45067;44.654;20.200;2023-08-08T03:34:19;5.50;;;2.08;;
59294;SDS011;45067;44.654;20.200;2023-08-08T03:39:49;5.90;;;2.13;;
59294;SDS011;45067;44.654;20.200;2023-08-08T03:42:15;6.72;;;1.70;;
59294;SDS011;45067;44.654;20.200;2023-08-08T03:44:41;4.88;;;1.90;;
59294;SDS011;45067;44.654;20.200;2023-08-08T03:47:07;6.22;;;2.13;;
59294;SDS011;45067;44.654;20.200;2023-08-08T03:49:33;5.90;;;2.45;;
59294;SDS011;45067;44.654;20.200;2023-08-08T03:55:03;4.80;;;2.28;;
59294;SDS011;45067;44.654;20.200;2023-08-08T03:57:30;6.35;;;2.20;;
59294;SDS011;45067;44.654;20.200;2023-08-08T03:59:56;4.63;;;2.45;;
59294;SDS011;45067;44.654;20.200;2023-08-08T04:02:22;9.10;;;2.88;;
59294;SDS011;45067;44.654;20.200;2023-08-08T04:04:48;6.55;;;2.78;;
59294;SDS011;45067;44.654;20.200;2023-08-08T04:10:36;6.68;;;2.30;;
59294;SDS011;45067;44.654;20.200;2023-08-08T04:13:02;3.28;;;2.33;;
59294;SDS011;45067;44.654;20.200;2023-08-08T04:15:28;7.55;;;2.80;;
59294;SDS011;45067;44.654;20.200;2023-08-08T04:17:54;11.40;;;2.45;;
59294;SDS011;45067;44.654;20.200;2023-08-08T04:20:20;4.18;;;2.40;;
59294;SDS011;45067;44.654;20.200;2023-08-08T04:22:46;4.43;;;2.65;;
59294;SDS011;45067;44.654;20.200;2023-08-08T04:25:13;4.85;;;2.50;;
59294;SDS011;45067;44.654;20.200;2023-08-08T04:27:39;5.90;;;2.47;;
59294;SDS011;45067;44.654;20.200;2023-08-08T04:30:05;5.97;;;2.72;;
59294;SDS011;45067;44.654;20.200;2023-08-08T04:32:32;6.07;;;2.30;;
59294;SDS011;45067;44.654;20.200;2023-08-08T04:34:58;7.03;;;2.70;;
59294;SDS011;45067;44.654;20.200;2023-08-08T04:37:24;5.88;;;2.60;;
59294;SDS011;45067;44.654;20.200;2023-08-08T04:39:50;6.60;;;2.53;;
59294;SDS011;45067;44.654;20.200;2023-08-08T04:42:16;7.72;;;3.08;;
59294;SDS011;45067;44.654;20.200;2023-08-08T04:44:42;6.38;;;2.88;;
59294;SDS011;45067;44.654;20.200;2023-08-08T04:47:08;5.82;;;2.28;;
59294;SDS011;45067;44.654;20.200;2023-08-08T04:49:34;4.50;;;2.08;;
59294;SDS011;45067;44.654;20.200;2023-08-08T04:55:04;6.45;;;1.80;;
59294;SDS011;45067;44.654;20.200;2023-08-08T04:57:30;3.90;;;1.80;;
59294;SDS011;45067;44.654;20.200;2023-08-08T04:59:56;4.97;;;1.70;;
59294;SDS011;45067;44.654;20.200;2023-08-08T05:02:23;3.45;;;1.77;;
59294;SDS011;45067;44.654;20.200;2023-08-08T05:04:49;5.03;;;1.70;;
59294;SDS011;45067;44.654;20.200;2023-08-08T05:10:18;3.20;;;1.58;;
59294;SDS011;45067;44.654;20.200;2023-08-08T05:12:44;3.17;;;1.65;;
59294;SDS011;45067;44.654;20.200;2023-08-08T05:15:10;6.85;;;1.77;;
59294;SDS011;45067;44.654;20.200;2023-08-08T05:17:37;6.47;;;1.80;;
59294;SDS011;45067;44.654;20.200;2023-08-08T05:20:03;3.97;;;1.70;;
59294;SDS011;45067;44.654;20.200;2023-08-08T05:25:33;2.58;;;1.60;;
59294;SDS011;45067;44.654;20.200;2023-08-08T05:27:59;4.60;;;1.90;;
59294;SDS011;45067;44.654;20.200;2023-08-08T05:30:25;3.60;;;1.70;;
59294;SDS011;45067;44.654;20.200;2023-08-08T05:32:51;4.57;;;1.48;;
59294;SDS011;45067;44.654;20.200;2023-08-08T05:35:17;4.85;;;1.88;;
59294;SDS011;45067;44.654;20.200;2023-08-08T05:37:44;4.03;;;1.77;;
59294;SDS011;45067;44.654;20.200;2023-08-08T05:40:10;5.15;;;1.73;;
59294;SDS011;45067;44.654;20.200;2023-08-08T05:42:37;2.55;;;1.63;;
59294;SDS011;45067;44.654;20.200;2023-08-08T05:45:03;3.75;;;1.50;;
59294;SDS011;45067;44.654;20.200;2023-08-08T05:47:29;7.82;;;2.45;;
59294;SDS011;45067;44.654;20.200;2023-08-08T05:49:55;3.80;;;2.00;;
59294;SDS011;45067;44.654;20.200;2023-08-08T05:55:25;2.63;;;1.50;;
59294;SDS011;45067;44.654;20.200;2023-08-08T05:57:51;2.88;;;1.52;;
59294;SDS011;45067;44.654;20.200;2023-08-08T06:00:17;4.25;;;1.50;;
59294;SDS011;45067;44.654;20.200;2023-08-08T06:02:43;3.58;;;1.52;;
59294;SDS011;45067;44.654;20.200;2023-08-08T06:05:10;2.45;;;1.40;;
59294;SDS011;45067;44.654;20.200;2023-08-08T06:10:40;5.30;;;1.95;;
59294;SDS011;45067;44.654;20.200;2023-08-08T06:13:06;4.50;;;1.80;;
59294;SDS011;45067;44.654;20.200;2023-08-08T06:15:32;2.20;;;1.30;;
59294;SDS011;45067;44.654;20.200;2023-08-08T06:17:59;2.55;;;1.73;;
59294;SDS011;45067;44.654;20.200;2023-08-08T06:20:25;3.17;;;1.55;;
59294;SDS011;45067;44.654;20.200;2023-08-08T06:22:51;4.20;;;1.70;;
59294;SDS011;45067;44.654;20.200;2023-08-08T06:25:17;2.70;;;1.70;;
59294;SDS011;45067;44.654;20.200;2023-08-08T06:27:43;7.15;;;1.60;;
59294;SDS011;45067;44.654;20.200;2023-08-08T06:30:09;3.20;;;1.80;;
59294;SDS011;45067;44.654;20.200;2023-08-08T06:32:35;5.13;;;1.80;;
59294;SDS011;45067;44.654;20.200;2023-08-08T06:35:02;3.03;;;1.60;;
59294;SDS011;45067;44.654;20.200;2023-08-08T06:40:31;3.78;;;1.50;;
59294;SDS011;45067;44.654;20.200;2023-08-08T06:42:57;2.90;;;1.58;;
59294;SDS011;45067;44.654;20.200;2023-08-08T06:45:23;4.03;;;1.75;;
59294;SDS011;45067;44.654;20.200;2023-08-08T06:47:50;2.58;;;1.40;;
59294;SDS011;45067;44.654;20.200;2023-08-08T06:50:16;3.38;;;1.40;;
59294;SDS011;45067;44.654;20.200;2023-08-08T06:55:45;3.08;;;1.83;;
59294;SDS011;45067;44.654;20.200;2023-08-08T06:58:11;4.25;;;2.03;;
59294;SDS011;45067;44.654;20.200;2023-08-08T07:00:37;3.00;;;1.95;;
59294;SDS011;45067;44.654;20.200;2023-08-08T07:03:04;3.88;;;1.50;;
59294;SDS011;45067;44.654;20.200;2023-08-08T07:05:31;2.47;;;1.50;;
59294;SDS011;45067;44.654;20.200;2023-08-08T07:11:00;9.02;;;2.67;;
59294;SDS011;45067;44.654;20.200;2023-08-08T07:13:26;3.17;;;1.80;;
59294;SDS011;45067;44.654;20.200;2023-08-08T07:15:53;4.65;;;1.77;;
59294;SDS011;45067;44.654;20.200;2023-08-08T07:18:19;4.63;;;1.88;;
59294;SDS011;45067;44.654;20.200;2023-08-08T07:20:45;2.63;;;1.52;;
59294;SDS011;45067;44.654;20.200;2023-08-08T07:23:11;3.17;;;1.60;;
59294;SDS011;45067;44.654;20.200;2023-08-08T07:25:37;2.70;;;1.90;;
59294;SDS011;45067;44.654;20.200;2023-08-08T07:28:03;2.85;;;1.60;;
59294;SDS011;45067;44.654;20.200;2023-08-08T07:30:29;2.03;;;1.55;;
59294;SDS011;45067;44.654;20.200;2023-08-08T07:32:55;3.80;;;1.77;;
59294;SDS011;45067;44.654;20.200;2023-08-08T07:35:21;2.45;;;1.65;;
59294;SDS011;45067;44.654;20.200;2023-08-08T07:40:50;7.38;;;2.03;;
59294;SDS011;45067;44.654;20.200;2023-08-08T07:43:17;3.38;;;1.55;;
59294;SDS011;45067;44.654;20.200;2023-08-08T07:45:43;4.47;;;1.75;;
59294;SDS011;45067;44.654;20.200;2023-08-08T07:48:09;2.65;;;1.90;;
59294;SDS011;45067;44.654;20.200;2023-08-08T07:50:35;2.95;;;1.70;;
59294;SDS011;45067;44.654;20.200;2023-08-08T07:56:04;4.22;;;1.90;;
59294;SDS011;45067;44.654;20.200;2023-08-08T07:58:31;5.63;;;1.85;;
59294;SDS011;45067;44.654;20.200;2023-08-08T08:00:57;6.00;;;1.90;;
59294;SDS011;45067;44.654;20.200;2023-08-08T08:03:25;3.20;;;1.95;;
59294;SDS011;45067;44.654;20.200;2023-08-08T08:05:52;3.63;;;1.60;;
59294;SDS011;45067;44.654;20.200;2023-08-08T08:11:21;5.93;;;1.80;;
59294;SDS011;45067;44.654;20.200;2023-08-08T08:13:47;4.50;;;1.80;;
59294;SDS011;45067;44.654;20.200;2023-08-08T08:16:13;3.83;;;1.92;;
59294;SDS011;45067;44.654;20.200;2023-08-08T08:18:40;3.55;;;1.73;;
59294;SDS011;45067;44.654;20.200;2023-08-08T08:21:06;3.75;;;1.85;;
59294;SDS011;45067;44.654;20.200;2023-08-08T08:23:32;3.97;;;2.15;;
59294;SDS011;45067;44.654;20.200;2023-08-08T08:25:58;4.95;;;2.03;;
59294;SDS011;45067;44.654;20.200;2023-08-08T08:28:25;3.05;;;1.75;;
59294;SDS011;45067;44.654;20.200;2023-08-08T08:30:51;7.00;;;1.88;;
59294;SDS011;45067;44.654;20.200;2023-08-08T08:33:17;5.05;;;2.30;;
59294;SDS011;45067;44.654;20.200;2023-08-08T08:35:43;4.00;;;2.30;;
59294;SDS011;45067;44.654;20.200;2023-08-08T08:41:17;4.95;;;2.33;;
59294;SDS011;45067;44.654;20.200;2023-08-08T08:43:44;5.72;;;2.53;;
59294;SDS011;45067;44.654;20.200;2023-08-08T08:46:11;5.93;;;1.90;;
59294;SDS011;45067;44.654;20.200;2023-08-08T08:48:37;3.78;;;2.00;;
59294;SDS011;45067;44.654;20.200;2023-08-08T08:51:03;4.65;;;1.80;;
59294;SDS011;45067;44.654;20.200;2023-08-08T08:56:34;7.03;;;3.90;;
59294;SDS011;45067;44.654;20.200;2023-08-08T08:59:00;9.38;;;2.80;;
59294;SDS011;45067;44.654;20.200;2023-08-08T09:01:26;4.38;;;2.15;;
59294;SDS011;45067;44.654;20.200;2023-08-08T09:03:53;3.72;;;1.90;;
59294;SDS011;45067;44.654;20.200;2023-08-08T09:06:19;3.90;;;2.13;;
59294;SDS011;45067;44.654;20.200;2023-08-08T09:08:46;8.65;;;1.90;;
59294;SDS011;45067;44.654;20.200;2023-08-08T09:11:12;8.38;;;2.30;;
59294;SDS011;45067;44.654;20.200;2023-08-08T09:13:39;4.93;;;2.88;;
59294;SDS011;45067;44.654;20.200;2023-08-08T09:16:08;8.82;;;2.78;;
59294;SDS011;45067;44.654;20.200;2023-08-08T09:18:37;4.75;;;2.40;;
59294;SDS011;45067;44.654;20.200;2023-08-08T09:21:03;4.03;;;2.20;;
59294;SDS011;45067;44.654;20.200;2023-08-08T09:26:33;4.38;;;2.30;;
59294;SDS011;45067;44.654;20.200;2023-08-08T09:29:00;5.57;;;2.85;;
59294;SDS011;45067;44.654;20.200;2023-08-08T09:31:26;4.65;;;2.58;;
59294;SDS011;45067;44.654;20.200;2023-08-08T09:33:56;5.50;;;3.80;;
59294;SDS011;45067;44.654;20.200;2023-08-08T09:36:23;6.65;;;2.83;;
59294;SDS011;45067;44.654;20.200;2023-08-08T09:38:49;4.80;;;2.47;;
59294;SDS011;45067;44.654;20.200;2023-08-08T09:41:15;6.25;;;3.50;;
59294;SDS011;45067;44.654;20.200;2023-08-08T09:43:44;5.93;;;3.00;;
59294;SDS011;45067;44.654;20.200;2023-08-08T09:46:11;3.47;;;2.33;;
59294;SDS011;45067;44.654;20.200;2023-08-08T09:48:38;6.32;;;2.33;;
59294;SDS011;45067;44.654;20.200;2023-08-08T09:51:04;4.32;;;2.78;;
59294;SDS011;45067;44.654;20.200;2023-08-08T09:56:35;4.47;;;2.45;;
59294;SDS011;45067;44.654;20.200;2023-08-08T09:59:01;6.25;;;3.72;;
59294;SDS011;45067;44.654;20.200;2023-08-08T10:01:28;3.88;;;2.28;;
59294;SDS011;45067;44.654;20.200;2023-08-08T10:03:54;4.72;;;1.92;;
59294;SDS011;45067;44.654;20.200;2023-08-08T10:06:21;4.78;;;1.88;;
59294;SDS011;45067;44.654;20.200;2023-08-08T10:11:51;3.42;;;1.85;;
59294;SDS011;45067;44.654;20.200;2023-08-08T10:14:17;5.43;;;2.05;;
59294;SDS011;45067;44.654;20.200;2023-08-08T10:16:43;4.95;;;1.77;;
59294;SDS011;45067;44.654;20.200;2023-08-08T10:19:09;5.68;;;2.83;;
59294;SDS011;45067;44.654;20.200;2023-08-08T10:21:36;7.55;;;2.58;;
59294;SDS011;45067;44.654;20.200;2023-08-08T10:24:04;3.88;;;2.17;;
59294;SDS011;45067;44.654;20.200;2023-08-08T10:26:32;13.02;;;2.20;;
59294;SDS011;45067;44.654;20.200;2023-08-08T10:28:59;6.18;;;2.15;;
59294;SDS011;45067;44.654;20.200;2023-08-08T10:31:25;4.18;;;1.83;;
59294;SDS011;45067;44.654;20.200;2023-08-08T10:34:00;6.28;;;2.38;;
59294;SDS011;45067;44.654;20.200;2023-08-08T10:36:42;12.10;;;2.50;;
59294;SDS011;45067;44.654;20.200;2023-08-08T10:42:43;3.92;;;2.20;;
59294;SDS011;45067;44.654;20.200;2023-08-08T10:45:13;3.17;;;1.90;;
59294;SDS011;45067;44.654;20.200;2023-08-08T10:47:39;4.72;;;2.30;;
59294;SDS011;45067;44.654;20.200;2023-08-08T10:50:06;9.25;;;2.53;;
59294;SDS011;45067;44.654;20.200;2023-08-08T10:58:18;4.75;;;2.50;;
59294;SDS011;45067;44.654;20.200;2023-08-08T11:00:38;5.93;;;2.90;;
59294;SDS011;45067;44.654;20.200;2023-08-08T11:03:06;4.50;;;2.40;;
59294;SDS011;45067;44.654;20.200;2023-08-08T11:05:34;4.00;;;2.15;;
59294;SDS011;45067;44.654;20.200;2023-08-08T11:08:01;5.10;;;2.17;;
59294;SDS011;45067;44.654;20.200;2023-08-08T11:10:27;6.18;;;2.40;;
59294;SDS011;45067;44.654;20.200;2023-08-08T11:13:02;4.90;;;2.20;;
59294;SDS011;45067;44.654;20.200;2023-08-08T11:15:28;4.60;;;2.13;;
59294;SDS011;45067;44.654;20.200;2023-08-08T11:17:55;5.35;;;2.38;;
59294;SDS011;45067;44.654;20.200;2023-08-08T11:20:22;13.27;;;2.88;;
59294;SDS011;45067;44.654;20.200;2023-08-08T11:22:54;5.15;;;2.10;;
59294;SDS011;45067;44.654;20.200;2023-08-08T11:25:21;4.30;;;1.98;;
59294;SDS011;45067;44.654;20.200;2023-08-08T11:27:54;3.78;;;1.90;;
59294;SDS011;45067;44.654;20.200;2023-08-08T11:30:21;2.67;;;1.77;;
59294;SDS011;45067;44.654;20.200;2023-08-08T11:32:48;5.53;;;1.85;;
59294;SDS011;45067;44.654;20.200;2023-08-08T11:35:18;3.47;;;2.10;;
59294;SDS011;45067;44.654;20.200;2023-08-08T11:37:45;2.90;;;1.95;;
59294;SDS011;45067;44.654;20.200;2023-08-08T11:40:12;3.92;;;2.00;;
59294;SDS011;45067;44.654;20.200;2023-08-08T11:42:38;2.88;;;1.70;;
59294;SDS011;45067;44.654;20.200;2023-08-08T11:45:06;3.03;;;1.60;;
59294;SDS011;45067;44.654;20.200;2023-08-08T11:47:32;5.65;;;1.90;;
59294;SDS011;45067;44.654;20.200;2023-08-08T11:50:01;4.68;;;1.80;;
59294;SDS011;45067;44.654;20.200;2023-08-08T11:52:28;4.05;;;1.80;;
59294;SDS011;45067;44.654;20.200;2023-08-08T11:54:55;3.47;;;1.80;;
59294;SDS011;45067;44.654;20.200;2023-08-08T11:57:21;3.60;;;2.13;;
59294;SDS011;45067;44.654;20.200;2023-08-08T11:59:52;3.55;;;1.83;;
59294;SDS011;45067;44.654;20.200;2023-08-08T12:02:18;4.10;;;1.73;;
59294;SDS011;45067;44.654;20.200;2023-08-08T12:04:45;3.05;;;1.83;;
59294;SDS011;45067;44.654;20.200;2023-08-08T12:07:11;5.70;;;2.00;;
59294;SDS011;45067;44.654;20.200;2023-08-08T12:09:37;4.15;;;1.80;;
59294;SDS011;45067;44.654;20.200;2023-08-08T12:12:04;4.72;;;1.85;;
59294;SDS011;45067;44.654;20.200;2023-08-08T12:14:36;2.33;;;1.70;;
59294;SDS011;45067;44.654;20.200;2023-08-08T12:17:02;3.95;;;2.05;;
59294;SDS011;45067;44.654;20.200;2023-08-08T12:19:28;8.15;;;3.92;;
59294;SDS011;45067;44.654;20.200;2023-08-08T12:21:54;13.15;;;7.50;;
59294;SDS011;45067;44.654;20.200;2023-08-08T12:27:24;6.47;;;2.22;;
59294;SDS011;45067;44.654;20.200;2023-08-08T12:29:50;4.45;;;1.73;;
59294;SDS011;45067;44.654;20.200;2023-08-08T12:32:19;3.72;;;2.35;;
59294;SDS011;45067;44.654;20.200;2023-08-08T12:34:45;4.70;;;2.40;;
59294;SDS011;45067;44.654;20.200;2023-08-08T12:37:11;6.15;;;2.47;;
59294;SDS011;45067;44.654;20.200;2023-08-08T12:42:41;4.15;;;1.88;;
59294;SDS011;45067;44.654;20.200;2023-08-08T12:45:07;9.70;;;4.75;;
59294;SDS011;45067;44.654;20.200;2023-08-08T12:47:33;3.83;;;2.15;;
59294;SDS011;45067;44.654;20.200;2023-08-08T12:50:03;4.30;;;2.50;;
59294;SDS011;45067;44.654;20.200;2023-08-08T12:52:29;4.90;;;2.50;;
59294;SDS011;45067;44.654;20.200;2023-08-08T12:54:55;6.85;;;2.38;;
59294;SDS011;45067;44.654;20.200;2023-08-08T12:57:22;4.10;;;2.08;;
59294;SDS011;45067;44.654;20.200;2023-08-08T12:59:48;4.30;;;1.88;;
59294;SDS011;45067;44.654;20.200;2023-08-08T13:02:14;4.40;;;2.60;;
59294;SDS011;45067;44.654;20.200;2023-08-08T13:04:40;2.58;;;1.80;;
59294;SDS011;45067;44.654;20.200;2023-08-08T13:07:06;4.18;;;2.00;;
59294;SDS011;45067;44.654;20.200;2023-08-08T13:12:36;4.78;;;2.05;;
59294;SDS011;45067;44.654;20.200;2023-08-08T13:15:03;4.07;;;2.10;;
59294;SDS011;45067;44.654;20.200;2023-08-08T13:17:30;3.22;;;2.35;;
59294;SDS011;45067;44.654;20.200;2023-08-08T13:19:56;10.30;;;5.72;;
59294;SDS011;45067;44.654;20.200;2023-08-08T13:22:22;11.57;;;7.70;;
59294;SDS011;45067;44.654;20.200;2023-08-08T13:27:52;4.63;;;2.88;;
59294;SDS011;45067;44.654;20.200;2023-08-08T13:30:19;4.05;;;2.28;;
59294;SDS011;45067;44.654;20.200;2023-08-08T13:32:46;4.18;;;2.15;;
59294;SDS011;45067;44.654;20.200;2023-08-08T13:35:13;4.45;;;2.20;;
59294;SDS011;45067;44.654;20.200;2023-08-08T13:37:39;3.70;;;2.20;;
59294;SDS011;45067;44.654;20.200;2023-08-08T13:40:05;4.53;;;1.95;;
59294;SDS011;45067;44.654;20.200;2023-08-08T13:42:32;6.03;;;2.30;;
59294;SDS011;45067;44.654;20.200;2023-08-08T13:44:58;4.43;;;2.20;;
59294;SDS011;45067;44.654;20.200;2023-08-08T13:47:24;3.78;;;1.83;;
59294;SDS011;45067;44.654;20.200;2023-08-08T13:49:51;5.10;;;2.78;;
59294;SDS011;45067;44.654;20.200;2023-08-08T13:52:18;12.30;;;9.20;;
59294;SDS011;45067;44.654;20.200;2023-08-08T13:57:48;6.78;;;3.78;;
59294;SDS011;45067;44.654;20.200;2023-08-08T14:00:14;10.80;;;6.35;;
59294;SDS011;45067;44.654;20.200;2023-08-08T14:02:41;11.98;;;9.15;;
59294;SDS011;45067;44.654;20.200;2023-08-08T14:05:08;15.13;;;10.38;;
59294;SDS011;45067;44.654;20.200;2023-08-08T14:07:35;14.63;;;9.02;;
59294;SDS011;45067;44.654;20.200;2023-08-08T14:13:05;5.00;;;3.10;;
59294;SDS011;45067;44.654;20.200;2023-08-08T14:15:31;4.18;;;2.50;;
59294;SDS011;45067;44.654;20.200;2023-08-08T14:17:58;6.68;;;4.20;;
59294;SDS011;45067;44.654;20.200;2023-08-08T14:20:25;6.38;;;3.10;;
59294;SDS011;45067;44.654;20.200;2023-08-08T14:22:51;3.78;;;2.33;;
59294;SDS011;45067;44.654;20.200;2023-08-08T14:25:17;5.03;;;2.20;;
59294;SDS011;45067;44.654;20.200;2023-08-08T14:27:43;4.07;;;2.70;;
59294;SDS011;45067;44.654;20.200;2023-08-08T14:30:09;6.95;;;3.80;;
59294;SDS011;45067;44.654;20.200;2023-08-08T14:32:36;3.85;;;2.47;;
59294;SDS011;45067;44.654;20.200;2023-08-08T14:35:02;6.72;;;2.70;;
59294;SDS011;45067;44.654;20.200;2023-08-08T14:37:29;5.45;;;2.50;;
59294;SDS011;45067;44.654;20.200;2023-08-08T14:42:59;6.88;;;3.13;;
59294;SDS011;45067;44.654;20.200;2023-08-08T14:45:26;7.10;;;2.78;;
59294;SDS011;45067;44.654;20.200;2023-08-08T14:47:52;4.35;;;2.83;;
59294;SDS011;45067;44.654;20.200;2023-08-08T14:50:18;4.75;;;2.60;;
59294;SDS011;45067;44.654;20.200;2023-08-08T14:52:44;4.75;;;2.35;;
59294;SDS011;45067;44.654;20.200;2023-08-08T14:58:14;4.80;;;2.40;;
59294;SDS011;45067;44.654;20.200;2023-08-08T15:00:40;4.32;;;2.60;;
59294;SDS011;45067;44.654;20.200;2023-08-08T15:03:07;3.88;;;2.30;;
59294;SDS011;45067;44.654;20.200;2023-08-08T15:05:33;3.08;;;2.35;;
59294;SDS011;45067;44.654;20.200;2023-08-08T15:07:59;5.80;;;3.25;;
59294;SDS011;45067;44.654;20.200;2023-08-08T15:13:29;4.40;;;2.28;;
59294;SDS011;45067;44.654;20.200;2023-08-08T15:15:55;4.18;;;2.25;;
59294;SDS011;45067;44.654;20.200;2023-08-08T15:18:21;6.88;;;3.58;;
59294;SDS011;45067;44.654;20.200;2023-08-08T15:20:47;10.63;;;5.85;;
59294;SDS011;45067;44.654;20.200;2023-08-08T15:23:13;5.38;;;3.03;;
59294;SDS011;45067;44.654;20.200;2023-08-08T15:25:40;4.78;;;3.00;;
59294;SDS011;45067;44.654;20.200;2023-08-08T15:28:06;4.22;;;2.58;;
59294;SDS011;45067;44.654;20.200;2023-08-08T15:30:33;4.57;;;2.20;;
59294;SDS011;45067;44.654;20.200;2023-08-08T15:32:59;4.13;;;2.58;;
59294;SDS011;45067;44.654;20.200;2023-08-08T15:35:25;4.47;;;2.40;;
59294;SDS011;45067;44.654;20.200;2023-08-08T15:37:51;4.35;;;2.53;;
59294;SDS011;45067;44.654;20.200;2023-08-08T15:43:21;4.25;;;2.22;;
59294;SDS011;45067;44.654;20.200;2023-08-08T15:45:47;5.35;;;2.72;;
59294;SDS011;45067;44.654;20.200;2023-08-08T15:48:13;5.32;;;2.22;;
59294;SDS011;45067;44.654;20.200;2023-08-08T15:50:41;5.38;;;2.88;;
59294;SDS011;45067;44.654;20.200;2023-08-08T15:53:07;4.22;;;2.55;;
59294;SDS011;45067;44.654;20.200;2023-08-08T15:58:38;4.63;;;2.50;;
59294;SDS011;45067;44.654;20.200;2023-08-08T16:01:04;7.40;;;5.35;;
59294;SDS011;45067;44.654;20.200;2023-08-08T16:03:32;6.13;;;3.50;;
59294;SDS011;45067;44.654;20.200;2023-08-08T16:05:59;16.80;;;10.82;;
59294;SDS011;45067;44.654;20.200;2023-08-08T16:08:26;20.48;;;13.85;;
59294;SDS011;45067;44.654;20.200;2023-08-08T16:10:52;7.88;;;4.65;;
59294;SDS011;45067;44.654;20.200;2023-08-08T16:13:18;7.22;;;3.33;;
59294;SDS011;45067;44.654;20.200;2023-08-08T16:15:44;9.82;;;5.57;;
59294;SDS011;45067;44.654;20.200;2023-08-08T16:18:11;4.82;;;2.55;;
59294;SDS011;45067;44.654;20.200;2023-08-08T16:20:37;5.07;;;1.80;;
59294;SDS011;45067;44.654;20.200;2023-08-08T16:23:03;5.70;;;1.98;;
59294;SDS011;45067;44.654;20.200;2023-08-08T16:28:33;3.95;;;1.98;;
59294;SDS011;45067;44.654;20.200;2023-08-08T16:31:01;3.13;;;1.90;;
59294;SDS011;45067;44.654;20.200;2023-08-08T16:33:27;5.95;;;2.20;;
59294;SDS011;45067;44.654;20.200;2023-08-08T16:35:53;4.03;;;1.80;;
59294;SDS011;45067;44.654;20.200;2023-08-08T16:38:19;3.45;;;2.00;;
59294;SDS011;45067;44.654;20.200;2023-08-08T16:44:02;3.58;;;2.10;;